Time;durP1;ratioP1;P1;durP2;ratioP2;P2;SDS_P1;SDS_P2;PMS_P1;PMS_P2;Temp;Humidity;BMP_temperature;BMP_pressure;BME280_temperature;BME280_humidity;BME280_pressure;Samples;Min_cycle;Max_cycle;Signal;HPM_P1;HPM_P2
2022/06/30 00:00:04;;;;;;;5.78;3.00;;;;;;;23.54;54.42;101021.81;5035101;28;20030;-64
2022/06/30 00:02:29;;;;;;;5.55;2.85;;;;;;;23.53;54.74;101021.97;5035475;28;20025;-64
2022/06/30 00:04:54;;;;;;;4.43;2.80;;;;;;;23.52;54.78;101022.94;5034126;28;20087;-64
2022/06/30 00:07:19;;;;;;;6.40;3.08;;;;;;;23.53;54.44;101021.97;5034894;28;20283;-64
2022/06/30 00:09:45;;;;;;;5.10;2.90;;;;;;;23.52;54.41;101017.63;5035242;28;20065;-65
2022/06/30 00:12:10;;;;;;;4.47;2.60;;;;;;;23.52;54.77;101017.63;5033895;28;20112;-64
2022/06/30 00:14:35;;;;;;;5.38;2.80;;;;;;;23.49;54.65;101010.78;5035201;28;20021;-64
2022/06/30 00:17:01;;;;;;;5.00;2.60;;;;;;;23.51;54.71;101011.47;5034681;28;20116;-64
2022/06/30 00:19:26;;;;;;;5.07;2.90;;;;;;;23.49;54.28;101002.81;5034133;28;20283;-64
2022/06/30 00:21:51;;;;;;;5.40;2.90;;;;;;;23.50;54.36;101007.13;5034703;28;20048;-65
2022/06/30 00:24:17;;;;;;;5.03;2.70;;;;;;;23.49;54.46;100997.47;5034616;28;20049;-64
2022/06/30 00:26:42;;;;;;;4.88;2.90;;;;;;;23.48;54.55;100992.31;5033162;28;20317;-64
2022/06/30 00:29:07;;;;;;;4.28;2.72;;;;;;;23.48;54.80;100992.31;5034210;28;20079;-65
2022/06/30 00:31:33;;;;;;;5.28;2.88;;;;;;;23.48;54.31;100998.50;5034863;28;20056;-65
2022/06/30 00:33:58;;;;;;;3.60;2.37;;;;;;;23.49;54.79;100991.34;5033887;28;20388;-64
2022/06/30 00:36:23;;;;;;;5.37;3.20;;;;;;;23.48;54.78;100998.50;5034700;28;20285;-64
2022/06/30 00:38:48;;;;;;;5.25;2.80;;;;;;;23.47;54.46;100991.50;5034592;28;20163;-64
2022/06/30 00:41:14;;;;;;;5.07;2.80;;;;;;;23.47;54.42;100990.66;5033565;28;20022;-66
2022/06/30 00:43:46;;;;;;;5.20;3.10;;;;;;;23.47;54.54;100988.84;5034604;28;20286;-65
2022/06/30 00:46:12;;;;;;;6.40;2.90;;;;;;;23.46;54.83;100997.78;5033593;28;20274;-64
2022/06/30 00:48:38;;;;;;;5.18;2.95;;;;;;;23.46;54.67;101000.44;5034499;28;20025;-64
2022/06/30 00:51:06;;;;;;;5.40;3.10;;;;;;;23.46;54.67;101002.28;5033922;28;20469;-64
2022/06/30 00:53:35;;;;;;;5.05;2.92;;;;;;;23.45;54.52;101012.09;5033664;28;20389;-65
2022/06/30 00:56:03;;;;;;;5.68;2.80;;;;;;;23.45;54.80;101001.47;5033678;28;20438;-64
2022/06/30 00:58:31;;;;;;;5.22;2.85;;;;;;;23.44;54.64;100996.28;5034094;28;20120;-64
2022/06/30 01:00:58;;;;;;;4.82;3.13;;;;;;;23.44;54.71;101002.44;5033204;28;20130;-64
2022/06/30 01:03:24;;;;;;;5.28;2.95;;;;;;;23.43;54.41;100999.94;5034248;28;20076;-64
2022/06/30 01:05:51;;;;;;;5.93;2.90;;;;;;;23.44;54.49;100998.97;5033836;28;20022;-64
2022/06/30 01:08:17;;;;;;;4.25;2.63;;;;;;;23.43;54.80;100994.63;5033160;28;20125;-64
2022/06/30 01:13:28;;;;;;;;;;;;;;;23.40;54.51;101000.25;5034604;28;20495;-65
2022/06/30 01:15:53;;;;;;;5.85;3.05;;;;;;;23.41;54.43;101001.94;5032648;28;20332;-65
2022/06/30 01:18:18;;;;;;;5.30;3.05;;;;;;;23.41;54.47;101001.94;5033650;28;20064;-65
2022/06/30 01:20:44;;;;;;;5.72;3.08;;;;;;;23.40;54.85;101001.09;5033721;28;20052;-65
2022/06/30 01:23:09;;;;;;;4.88;3.15;;;;;;;23.40;54.71;101002.91;5032643;28;20464;-65
2022/06/30 01:25:34;;;;;;;5.37;3.07;;;;;;;23.38;54.82;101002.22;5033870;28;20029;-65
2022/06/30 01:28:00;;;;;;;5.20;3.10;;;;;;;23.37;54.49;101006.72;5033369;28;20361;-65
2022/06/30 01:30:26;;;;;;;4.22;2.92;;;;;;;23.38;54.54;101011.03;5032910;28;20025;-65
2022/06/30 01:32:51;;;;;;;5.47;3.05;;;;;;;23.37;54.34;101017.38;5033163;28;20025;-65
2022/06/30 01:35:17;;;;;;;3.90;2.70;;;;;;;23.35;54.48;101006.88;5033346;28;20045;-65
2022/06/30 01:37:47;;;;;;;4.30;2.80;;;;;;;23.35;54.61;101006.88;5033086;28;20017;-65
2022/06/30 01:40:13;;;;;;;4.82;2.90;;;;;;;23.35;54.37;101014.88;5032803;28;20033;-65
2022/06/30 01:42:38;;;;;;;5.10;3.10;;;;;;;23.35;54.41;101014.00;5032551;28;20028;-65
2022/06/30 01:45:05;;;;;;;6.97;3.00;;;;;;;23.32;54.55;101009.84;5033078;28;20045;-65
2022/06/30 01:47:30;;;;;;;5.25;3.13;;;;;;;23.32;54.38;101012.50;5033358;28;20278;-65
2022/06/30 01:49:55;;;;;;;4.60;3.10;;;;;;;23.33;54.77;101013.34;5032210;28;20017;-65
2022/06/30 01:52:21;;;;;;;4.68;2.92;;;;;;;23.31;54.36;101002.84;5033213;28;20068;-65
2022/06/30 01:54:46;;;;;;;4.63;3.10;;;;;;;23.31;54.82;101016.16;5033395;28;20048;-65
2022/06/30 01:57:11;;;;;;;5.30;2.88;;;;;;;23.30;54.83;101009.16;5032192;28;20267;-65
2022/06/30 01:59:36;;;;;;;5.30;3.05;;;;;;;23.29;54.81;101002.19;5033327;28;20145;-65
2022/06/30 02:02:02;;;;;;;5.83;3.37;;;;;;;23.30;54.44;101005.66;5032763;28;20017;-65
2022/06/30 02:07:11;;;;;;;4.90;2.75;;;;;;;23.27;54.61;101012.13;5033064;28;20405;-65
2022/06/30 02:09:36;;;;;;;4.43;3.00;;;;;;;23.27;54.61;101017.44;5033040;28;20029;-65
2022/06/30 02:14:46;;;;;;;4.57;3.15;;;;;;;23.26;54.90;101022.94;5033071;28;20539;-65
2022/06/30 02:17:11;;;;;;;4.87;2.87;;;;;;;23.26;54.72;101020.28;5032588;28;20037;-65
2022/06/30 02:19:36;;;;;;;5.03;3.00;;;;;;;23.26;54.69;101030.91;5032227;28;20307;-65
2022/06/30 02:22:01;;;;;;;4.80;3.03;;;;;;;23.25;54.51;101024.75;5032701;28;20486;-65
2022/06/30 02:24:27;;;;;;;6.35;3.20;;;;;;;23.25;54.96;101029.22;5033104;28;20315;-65
2022/06/30 02:26:52;;;;;;;5.28;3.17;;;;;;;23.22;54.54;101022.38;5031848;28;20097;-65
2022/06/30 02:29:18;;;;;;;3.95;2.63;;;;;;;23.25;54.51;101042.53;5032874;28;20021;-65
2022/06/30 02:31:43;;;;;;;6.85;2.88;;;;;;;23.24;54.73;101040.84;5031998;28;20457;-65
2022/06/30 02:34:08;;;;;;;6.13;3.00;;;;;;;23.22;54.93;101032.19;5032180;28;20386;-65
2022/06/30 02:36:33;;;;;;;4.40;3.07;;;;;;;23.22;54.48;101033.03;5033171;28;20031;-65
2022/06/30 02:38:59;;;;;;;6.57;3.10;;;;;;;23.23;54.58;101032.03;5031922;28;20364;-65
2022/06/30 02:41:24;;;;;;;4.32;3.20;;;;;;;23.21;54.71;101028.72;5032845;28;20049;-65
2022/06/30 02:43:49;;;;;;;4.63;3.20;;;;;;;23.22;54.79;101029.53;5032467;28;20025;-65
2022/06/30 02:46:15;;;;;;;5.45;3.30;;;;;;;23.20;54.73;101023.53;5031740;28;20362;-65
2022/06/30 02:48:40;;;;;;;5.97;3.63;;;;;;;23.18;54.28;101021.03;5032622;28;20026;-65
2022/06/30 02:51:05;;;;;;;5.38;3.10;;;;;;;23.19;54.77;101020.03;5034064;28;20306;-65
2022/06/30 02:53:30;;;;;;;5.33;2.90;;;;;;;23.20;54.31;101026.22;5035677;28;20030;-65
2022/06/30 02:55:56;;;;;;;5.23;3.53;;;;;;;23.19;54.33;101025.34;5036375;28;20271;-64
2022/06/30 02:58:21;;;;;;;5.63;3.30;;;;;;;23.16;54.69;101010.56;5036675;28;20302;-65
2022/06/30 03:00:47;;;;;;;5.10;2.90;;;;;;;23.18;54.49;101013.06;5035628;28;20033;-65
2022/06/30 03:03:12;;;;;;;4.82;3.30;;;;;;;23.18;54.59;101013.88;5036173;28;20448;-65
2022/06/30 03:05:37;;;;;;;4.75;3.28;;;;;;;23.17;54.75;101014.03;5036316;28;20021;-65
2022/06/30 03:08:03;;;;;;;4.93;3.35;;;;;;;23.17;54.52;101016.69;5035478;28;20143;-65
2022/06/30 03:10:28;;;;;;;4.53;2.95;;;;;;;23.16;54.50;101013.22;5036326;28;20022;-65
2022/06/30 03:12:53;;;;;;;4.10;3.10;;;;;;;23.16;54.37;101013.22;5035992;28;20029;-65
2022/06/30 03:15:19;;;;;;;5.60;3.70;;;;;;;23.17;54.22;101014.03;5035428;28;20064;-65
2022/06/30 03:17:44;;;;;;;4.18;2.97;;;;;;;23.15;54.16;101011.53;5036114;28;20053;-65
2022/06/30 03:20:10;;;;;;;5.30;3.37;;;;;;;23.16;54.10;101009.72;5035833;28;20388;-65
2022/06/30 03:22:35;;;;;;;4.90;3.33;;;;;;;23.14;54.28;101006.38;5035220;28;20348;-65
2022/06/30 03:25:00;;;;;;;4.93;3.33;;;;;;;23.13;54.26;101005.56;5035762;28;20017;-65
2022/06/30 03:27:26;;;;;;;5.13;3.30;;;;;;;23.14;54.23;101012.50;5036663;28;20443;-65
2022/06/30 03:29:51;;;;;;;7.00;3.85;;;;;;;23.13;54.38;101008.22;5035301;28;20267;-65
2022/06/30 03:32:16;;;;;;;5.90;3.60;;;;;;;23.13;54.39;101013.53;5035801;28;20040;-65
2022/06/30 03:34:42;;;;;;;5.13;3.78;;;;;;;23.12;54.02;101011.84;5035830;28;20374;-65
2022/06/30 03:37:07;;;;;;;5.78;3.60;;;;;;;23.13;54.14;101008.22;5034823;28;20025;-65
2022/06/30 03:39:32;;;;;;;4.90;3.55;;;;;;;23.12;54.26;101008.38;5035824;28;20030;-65
2022/06/30 03:41:57;;;;;;;4.80;3.47;;;;;;;23.11;54.05;101006.69;5034848;28;20032;-65
2022/06/30 03:44:23;;;;;;;6.40;4.07;;;;;;;23.11;54.37;101007.50;5035566;28;20488;-65
2022/06/30 03:46:48;;;;;;;5.87;3.70;;;;;;;23.10;54.30;100997.06;5035391;28;20357;-65
2022/06/30 03:49:15;;;;;;;7.00;3.87;;;;;;;23.11;54.21;101004.03;5034679;28;20266;-65
2022/06/30 03:51:40;;;;;;;6.15;3.60;;;;;;;23.09;54.29;101001.53;5035599;28;20278;-65
2022/06/30 03:54:05;;;;;;;5.30;3.80;;;;;;;23.09;54.41;101001.53;5035358;28;20017;-65
2022/06/30 03:56:30;;;;;;;6.13;3.50;;;;;;;23.09;54.31;100998.03;5034849;28;20100;-64
2022/06/30 03:58:56;;;;;;;5.85;3.40;;;;;;;23.08;54.25;100989.22;5035016;28;20774;-65
2022/06/30 04:01:21;;;;;;;5.93;4.20;;;;;;;23.08;54.41;100988.38;5035049;28;20022;-65
2022/06/30 04:03:47;;;;;;;5.55;3.50;;;;;;;23.07;54.42;101003.47;5034713;28;20113;-65
2022/06/30 04:06:12;;;;;;;5.68;3.63;;;;;;;23.08;54.25;100993.69;5034909;28;20060;-65
2022/06/30 04:08:38;;;;;;;4.88;3.60;;;;;;;23.08;54.18;100993.69;5035351;28;20040;-65
2022/06/30 04:11:03;;;;;;;4.97;3.33;;;;;;;23.07;54.17;100992.84;5034161;28;20022;-64
2022/06/30 04:13:28;;;;;;;6.13;3.78;;;;;;;23.07;54.20;100989.34;5035246;28;20258;-65
2022/06/30 04:15:55;;;;;;;4.77;3.30;;;;;;;23.06;54.15;100990.34;5034599;28;20493;-65
2022/06/30 04:18:20;;;;;;;5.28;3.55;;;;;;;23.07;54.02;100992.00;5034271;28;20278;-65
2022/06/30 04:20:45;;;;;;;5.18;3.42;;;;;;;23.05;54.28;101013.44;5034937;28;20022;-65
2022/06/30 04:23:11;;;;;;;4.83;3.60;;;;;;;23.06;54.42;101000.97;5034625;28;20030;-65
2022/06/30 04:25:37;;;;;;;4.72;3.00;;;;;;;23.05;54.21;101013.44;5034400;28;20689;-65
2022/06/30 04:28:02;;;;;;;4.70;3.30;;;;;;;23.05;54.31;101007.25;5034644;28;20017;-65
2022/06/30 04:33:12;;;;;;;5.53;3.30;;;;;;;23.05;54.05;101016.09;5033843;28;20036;-65
2022/06/30 04:35:37;;;;;;;6.40;3.90;;;;;;;23.05;54.63;101041.81;5034491;28;20400;-64
2022/06/30 04:38:03;;;;;;;5.60;3.65;;;;;;;23.05;54.00;101047.97;5034282;28;20033;-64
2022/06/30 04:43:14;;;;;;;6.25;3.65;;;;;;;23.04;54.26;101048.13;5034469;28;20052;-65
2022/06/30 04:45:40;;;;;;;5.60;3.97;;;;;;;23.03;53.92;101049.94;5033801;28;20030;-65
2022/06/30 04:48:05;;;;;;;5.60;4.00;;;;;;;23.04;54.13;101043.66;5034403;28;20037;-65
2022/06/30 04:50:31;;;;;;;5.50;3.95;;;;;;;23.01;53.99;101055.41;5034621;28;20478;-66
2022/06/30 04:52:56;;;;;;;5.35;3.80;;;;;;;23.04;54.12;101056.09;5033156;28;20389;-65
2022/06/30 04:55:21;;;;;;;6.43;4.05;;;;;;;23.04;54.49;101048.97;5034137;28;20017;-65
2022/06/30 04:57:47;;;;;;;5.07;3.85;;;;;;;23.03;54.05;101068.53;5034368;28;20456;-65
2022/06/30 05:00:12;;;;;;;5.18;3.75;;;;;;;23.03;54.30;101049.09;5033117;28;20116;-68
2022/06/30 05:02:38;;;;;;;5.80;4.22;;;;;;;23.04;54.09;101053.44;5034127;28;20108;-65
2022/06/30 05:05:03;;;;;;;6.85;4.18;;;;;;;23.03;54.29;101055.25;5033556;28;20024;-65
2022/06/30 05:07:29;;;;;;;6.78;4.38;;;;;;;23.01;54.39;101049.25;5033692;28;20025;-65
2022/06/30 05:09:54;;;;;;;5.80;3.95;;;;;;;23.03;54.13;101052.59;5033696;28;20013;-65
2022/06/30 05:12:19;;;;;;;6.88;4.22;;;;;;;23.04;54.42;101056.94;5033852;28;20120;-65
2022/06/30 05:14:45;;;;;;;6.13;4.07;;;;;;;23.04;54.38;101050.78;5032332;28;20100;-65
2022/06/30 05:17:10;;;;;;;5.53;4.30;;;;;;;23.04;54.44;101042.81;5033569;28;20037;-65
2022/06/30 05:19:35;;;;;;;6.72;4.20;;;;;;;23.03;54.26;101049.94;5033746;28;20291;-65
2022/06/30 05:22:01;;;;;;;5.47;4.20;;;;;;;23.03;54.38;101047.28;5034746;28;20326;-65
2022/06/30 05:27:11;;;;;;;5.32;3.85;;;;;;;23.04;54.38;101046.31;5033556;28;20049;-64
2022/06/30 05:29:36;;;;;;;5.90;4.30;;;;;;;23.03;54.29;101049.09;5032699;28;20389;-65
2022/06/30 05:32:02;;;;;;;6.50;4.53;;;;;;;23.03;54.16;101049.09;5033085;28;20030;-65
2022/06/30 05:34:27;;;;;;;6.90;4.38;;;;;;;23.04;54.18;101048.97;5032960;28;20045;-64
2022/06/30 05:36:53;;;;;;;5.40;4.07;;;;;;;23.03;54.66;101049.94;5032965;28;20151;-65
2022/06/30 05:39:18;;;;;;;5.22;4.00;;;;;;;23.03;54.21;101051.78;5033231;28;20083;-65
2022/06/30 05:41:43;;;;;;;5.95;4.00;;;;;;;23.05;54.07;101058.63;5032707;28;20096;-64
2022/06/30 05:44:09;;;;;;;5.20;3.92;;;;;;;23.05;54.49;101060.41;5033080;28;20080;-66
2022/06/30 05:46:36;;;;;;;5.97;4.00;;;;;;;23.05;54.21;101060.41;5033404;28;20024;-65
2022/06/30 05:49:02;;;;;;;5.65;3.90;;;;;;;23.04;54.34;101059.59;5032085;28;20531;-65
2022/06/30 05:51:27;;;;;;;5.30;3.78;;;;;;;23.05;54.31;101057.75;5033176;28;20037;-65
2022/06/30 05:53:52;;;;;;;5.10;3.20;;;;;;;23.04;54.28;101059.59;5032645;28;20021;-65
2022/06/30 05:56:18;;;;;;;5.57;3.78;;;;;;;23.05;54.28;101058.63;5032479;28;20321;-66
2022/06/30 05:58:45;;;;;;;7.07;4.50;;;;;;;23.05;54.17;101055.09;5033067;28;20051;-67
2022/06/30 06:01:10;;;;;;;7.93;3.70;;;;;;;23.05;54.20;101065.72;5032764;28;20045;-66
2022/06/30 06:03:35;;;;;;;5.95;3.38;;;;;;;23.00;54.64;101051.09;5032441;28;20025;-64
2022/06/30 06:06:00;;;;;;;6.07;3.70;;;;;;;23.04;54.44;101051.63;5032629;28;20429;-64
2022/06/30 06:08:26;;;;;;;6.22;3.17;;;;;;;23.06;54.60;101060.25;5032774;28;20270;-65
2022/06/30 06:10:51;;;;;;;4.97;3.17;;;;;;;23.07;54.52;101058.47;5031797;28;20373;-65
2022/06/30 06:13:16;;;;;;;6.38;3.15;;;;;;;23.09;54.68;101062.66;5032832;28;20025;-66
2022/06/30 06:15:42;;;;;;;9.00;3.83;;;;;;;23.09;54.47;101067.16;5032849;28;20103;-64
2022/06/30 06:18:07;;;;;;;8.73;5.30;;;;;;;23.04;54.25;101066.75;5032054;28;20029;-64
2022/06/30 06:20:32;;;;;;;8.45;5.57;;;;;;;22.87;53.95;101074.53;5032721;28;20121;-64
2022/06/30 06:22:57;;;;;;;9.18;5.32;;;;;;;22.66;54.70;101072.16;5032755;28;20084;-64
2022/06/30 06:25:23;;;;;;;7.32;5.38;;;;;;;22.47;55.33;101067.78;5032141;28;20029;-64
2022/06/30 06:30:33;;;;;;;11.15;5.75;;;;;;;22.14;56.37;101075.31;5032836;28;20459;-64
2022/06/30 06:32:58;;;;;;;7.47;5.25;;;;;;;22.04;56.67;101080.66;5031701;28;20025;-64
2022/06/30 06:35:24;;;;;;;10.13;5.33;;;;;;;21.94;57.97;101090.47;5032541;28;20045;-65
2022/06/30 06:37:49;;;;;;;8.88;5.47;;;;;;;21.87;58.01;101086.72;5031977;28;20289;-62
2022/06/30 06:40:14;;;;;;;10.15;5.47;;;;;;;21.80;57.88;101088.28;5032809;28;20057;-62
2022/06/30 06:42:39;;;;;;;8.50;4.97;;;;;;;21.75;58.67;101094.00;5032623;28;20048;-65
2022/06/30 06:45:05;;;;;;;7.87;5.47;;;;;;;21.71;58.47;101092.59;5031519;28;20441;-64
2022/06/30 06:47:32;;;;;;;9.38;5.13;;;;;;;21.67;59.02;101093.88;5032712;28;20279;-62
2022/06/30 06:49:58;;;;;;;7.25;4.97;;;;;;;21.64;59.09;101095.00;5032200;28;20021;-63
2022/06/30 06:52:23;;;;;;;7.90;4.90;;;;;;;21.62;58.99;101096.97;5031819;28;20519;-63
2022/06/30 06:54:48;;;;;;;9.50;5.30;;;;;;;21.62;58.77;101104.06;5032534;28;20021;-64
2022/06/30 06:57:14;;;;;;;7.83;5.23;;;;;;;21.60;59.11;101098.91;5032353;28;20356;-63
2022/06/30 06:59:39;;;;;;;10.60;4.85;;;;;;;21.58;58.98;101103.50;5031514;28;20293;-64
2022/06/30 07:02:04;;;;;;;7.50;5.13;;;;;;;21.56;58.69;101098.34;5032255;28;20112;-64
2022/06/30 07:04:30;;;;;;;9.20;5.10;;;;;;;21.58;58.66;101102.69;5032381;28;20018;-64
2022/06/30 07:06:55;;;;;;;9.63;4.68;;;;;;;21.58;59.43;101110.66;5031336;28;20028;-64
2022/06/30 07:09:20;;;;;;;7.72;4.95;;;;;;;21.58;60.21;101115.94;5032634;28;20465;-64
2022/06/30 07:11:48;;;;;;;9.25;5.13;;;;;;;21.60;60.59;101119.28;5032478;28;20025;-63
2022/06/30 07:14:13;;;;;;;9.23;4.57;;;;;;;21.61;60.50;101129.75;5031286;28;20053;-64
2022/06/30 07:16:38;;;;;;;8.45;4.28;;;;;;;21.62;59.01;101133.22;5032372;28;20064;-63
2022/06/30 07:19:04;;;;;;;8.73;4.32;;;;;;;21.64;59.66;101142.72;5032105;28;20033;-63
2022/06/30 07:21:29;;;;;;;7.75;4.10;;;;;;;21.65;60.36;101143.56;5031580;28;20519;-63
2022/06/30 07:23:54;;;;;;;9.15;4.38;;;;;;;21.66;60.39;101142.59;5031988;28;20022;-64
2022/06/30 07:26:19;;;;;;;7.50;3.53;;;;;;;21.67;60.00;101142.47;5032373;28;20038;-62
2022/06/30 07:28:45;;;;;;;8.05;4.40;;;;;;;21.69;59.53;101139.66;5031534;28;20290;-61
2022/06/30 07:31:12;;;;;;;7.22;3.55;;;;;;;21.72;59.75;101137.56;5031888;28;20018;-63
2022/06/30 07:33:37;;;;;;;8.05;3.95;;;;;;;21.76;59.34;101131.97;5032273;28;20087;-64
2022/06/30 07:36:03;;;;;;;6.65;3.40;;;;;;;21.77;59.39;101134.47;5031285;28;20385;-65
2022/06/30 07:38:28;;;;;;;7.65;4.25;;;;;;;21.78;58.87;101128.22;5035792;28;20060;-64
2022/06/30 07:40:53;;;;;;;6.93;3.40;;;;;;;21.80;58.69;101134.19;5035537;28;20029;-62
2022/06/30 07:43:19;;;;;;;7.97;3.28;;;;;;;21.80;58.82;101136.03;5034993;28;20526;-62
2022/06/30 07:45:44;;;;;;;8.63;3.50;;;;;;;21.83;58.40;101135.75;5035725;28;20021;-63
2022/06/30 07:48:09;;;;;;;8.85;3.17;;;;;;;21.86;58.27;101136.28;5034690;28;20477;-65
2022/06/30 07:50:34;;;;;;;6.30;3.00;;;;;;;21.87;58.16;101135.31;5035473;28;20021;-62
2022/06/30 07:53:00;;;;;;;6.87;3.37;;;;;;;21.91;58.11;101135.88;5035371;28;20808;-61
2022/06/30 07:55:25;;;;;;;7.97;3.47;;;;;;;21.93;58.17;101131.25;5034783;28;20286;-63
2022/06/30 07:57:50;;;;;;;5.40;2.65;;;;;;;21.95;57.79;101134.59;5035135;28;20349;-63
2022/06/30 08:00:16;;;;;;;5.45;2.65;;;;;;;21.98;57.86;101129.00;5035197;28;20032;-63
2022/06/30 08:02:42;;;;;;;7.63;3.13;;;;;;;22.00;57.70;101129.72;5034586;28;20030;-64
2022/06/30 08:05:08;;;;;;;6.95;4.05;;;;;;;22.02;57.25;101129.56;5035045;28;20029;-63
2022/06/30 08:07:34;;;;;;;6.63;2.53;;;;;;;22.06;57.87;101115.88;5035368;28;20053;-66
2022/06/30 08:10:00;;;;;;;8.20;2.70;;;;;;;22.09;57.16;101115.56;5034186;28;20049;-66
2022/06/30 08:12:25;;;;;;;3.58;1.60;;;;;;;22.16;57.37;101120.28;5035363;28;20104;-63
2022/06/30 08:14:51;;;;;;;4.47;1.70;;;;;;;22.25;57.50;101119.41;5036059;28;20027;-63
2022/06/30 08:17:16;;;;;;;4.28;1.52;;;;;;;22.33;57.20;101129.34;5034441;28;20021;-63
2022/06/30 08:19:42;;;;;;;4.18;1.55;;;;;;;22.42;56.69;101125.81;5035563;28;20536;-63
2022/06/30 08:22:08;;;;;;;6.05;1.58;;;;;;;22.50;56.51;101123.28;5034601;28;20022;-64
2022/06/30 08:24:33;;;;;;;4.95;1.70;;;;;;;22.56;56.57;101129.81;5034169;28;20460;-63
2022/06/30 08:27:02;;;;;;;4.05;1.50;;;;;;;22.60;56.58;101128.53;5034677;28;20022;-64
2022/06/30 08:29:28;;;;;;;5.70;1.65;;;;;;;22.66;56.08;101133.25;5034842;28;20516;-63
2022/06/30 08:31:53;;;;;;;6.28;1.65;;;;;;;22.71;55.86;101141.63;5033826;28;20026;-63
2022/06/30 08:34:18;;;;;;;5.37;1.57;;;;;;;22.75;55.85;101136.88;5034464;28;20026;-63
2022/06/30 08:36:43;;;;;;;5.27;1.50;;;;;;;22.77;55.72;101133.06;5035015;28;20275;-63
2022/06/30 08:42:02;;;;;;;3.92;1.30;;;;;;;22.80;55.99;101129.28;5033799;28;20380;-63
2022/06/30 08:42:03;;;;;;;3.72;1.40;;;;;;;22.84;55.95;101135.94;5034385;28;20033;-63
2022/06/30 08:44:34;;;;;;;3.40;1.40;;;;;;;22.88;55.60;101133.84;5033771;28;20084;-63
2022/06/30 08:47:00;;;;;;;3.97;1.25;;;;;;;22.89;55.74;101138.16;5034119;28;20481;-63
2022/06/30 08:49:26;;;;;;;3.42;1.60;;;;;;;22.92;55.65;101129.88;5033452;28;20028;-64
2022/06/30 08:51:55;;;;;;;3.53;1.42;;;;;;;22.94;55.25;101125.25;5033413;28;20037;-63
2022/06/30 08:54:22;;;;;;;3.65;1.20;;;;;;;22.95;55.23;101129.59;5034575;28;20108;-64
2022/06/30 08:56:50;;;;;;;4.50;1.58;;;;;;;22.97;55.15;101130.28;5034511;28;20037;-63
2022/06/30 08:59:16;;;;;;;4.93;1.60;;;;;;;22.99;55.20;101137.13;5033490;28;20029;-64
2022/06/30 09:01:41;;;;;;;4.15;1.38;;;;;;;23.00;55.21;101138.81;5034509;28;20079;-63
2022/06/30 09:04:10;;;;;;;2.85;1.10;;;;;;;22.98;55.38;101140.75;5034050;28;20033;-64
2022/06/30 09:06:35;;;;;;;3.55;1.25;;;;;;;23.04;55.41;101136.69;5033536;28;20021;-63
2022/06/30 09:09:01;;;;;;;3.17;1.38;;;;;;;23.05;55.29;101134.84;5033721;28;20385;-64
2022/06/30 09:11:53;;;;;;;4.43;1.80;;;;;;;23.01;55.06;101129.81;5034054;28;20033;-63
2022/06/30 09:14:41;;;;;;;5.18;1.70;;;;;;;23.07;54.79;101140.88;5033484;28;20025;-63
2022/06/30 09:17:18;;;;;;;4.43;1.30;;;;;;;23.07;55.04;101136.38;5033828;28;20026;-64
2022/06/30 09:20:14;;;;;;;4.43;1.60;;;;;;;23.08;54.94;101148.72;5033217;28;20026;-63
2022/06/30 09:22:40;;;;;;;4.57;1.52;;;;;;;23.10;55.11;101144.09;5033504;28;20048;-63
2022/06/30 09:25:07;;;;;;;5.38;2.65;;;;;;;23.11;54.96;101143.06;5033431;28;20507;-63
2022/06/30 09:27:40;;;;;;;3.90;1.30;;;;;;;23.12;54.61;101139.44;5032948;28;20052;-63
2022/06/30 09:30:10;;;;;;;2.77;1.30;;;;;;;23.14;54.94;101141.94;5033454;28;20026;-64
2022/06/30 09:32:53;;;;;;;2.90;1.38;;;;;;;23.15;54.92;101144.47;5033588;28;20269;-63
2022/06/30 09:35:26;;;;;;;3.58;1.30;;;;;;;23.16;54.85;101145.28;5032685;28;20084;-63
2022/06/30 09:38:12;;;;;;;3.25;1.48;;;;;;;23.17;54.78;101141.66;5033219;28;20485;-63
2022/06/30 09:41:04;;;;;;;3.67;1.38;;;;;;;23.18;54.73;101151.31;5033038;28;20052;-63
2022/06/30 09:43:31;;;;;;;2.88;1.20;;;;;;;23.18;54.79;101152.13;5033701;28;20021;-63
2022/06/30 09:45:57;;;;;;;3.65;1.38;;;;;;;23.20;54.65;101141.34;5033174;28;20029;-63
2022/06/30 09:48:26;;;;;;;4.45;1.50;;;;;;;23.21;54.53;101143.03;5032657;28;20472;-63
2022/06/30 09:51:00;;;;;;;3.55;1.15;;;;;;;23.22;54.94;101144.69;5033026;28;20104;-63
2022/06/30 09:53:25;;;;;;;4.03;1.40;;;;;;;23.24;54.50;101152.50;5033280;28;20032;-63
2022/06/30 09:55:51;;;;;;;3.78;1.30;;;;;;;23.24;54.73;101147.19;5032448;28;20101;-63
2022/06/30 09:58:35;;;;;;;3.03;1.15;;;;;;;23.26;54.65;101142.59;5033137;28;20017;-63
2022/06/30 10:01:01;;;;;;;2.47;1.20;;;;;;;23.26;54.73;101147.91;5032665;28;20079;-63
2022/06/30 10:03:26;;;;;;;4.50;1.30;;;;;;;23.27;54.65;101150.38;5032403;28;20025;-63
2022/06/30 10:06:12;;;;;;;2.45;1.10;;;;;;;23.29;54.56;101145.75;5032734;28;20388;-63
2022/06/30 10:08:39;;;;;;;3.17;1.15;;;;;;;23.31;54.27;101156.25;5033326;28;20095;-63
2022/06/30 10:11:05;;;;;;;4.00;1.42;;;;;;;23.31;54.62;101150.94;5032001;28;20025;-63
2022/06/30 10:13:35;;;;;;;2.75;1.23;;;;;;;23.32;54.51;101157.91;5033080;28;20044;-63
2022/06/30 10:16:03;;;;;;;3.50;1.20;;;;;;;23.33;54.21;101157.75;5031882;28;20021;-64
2022/06/30 10:18:30;;;;;;;2.45;1.20;;;;;;;23.33;54.60;101163.06;5033157;28;20067;-63
2022/06/30 10:20:56;;;;;;;4.95;1.90;;;;;;;23.35;53.49;101157.59;5032586;28;20500;-64
2022/06/30 10:23:23;;;;;;;3.80;1.27;;;;;;;23.36;53.99;101149.47;5032110;28;20057;-63
2022/06/30 10:25:49;;;;;;;4.30;1.52;;;;;;;23.39;54.05;101143.03;5032920;28;20059;-63
2022/06/30 10:28:19;;;;;;;3.70;1.40;;;;;;;23.40;54.10;101142.06;5032883;28;20026;-63
2022/06/30 10:31:04;;;;;;;9.02;2.28;;;;;;;23.42;54.28;101139.25;5032008;28;20113;-63
2022/06/30 10:33:37;;;;;;;5.70;1.98;;;;;;;23.44;54.17;101153.22;5033097;28;20079;-63
2022/06/30 10:36:11;;;;;;;7.70;1.70;;;;;;;23.44;54.28;101143.41;5032549;28;20076;-63
2022/06/30 10:38:51;;;;;;;5.10;2.20;;;;;;;23.47;53.06;101143.09;5032054;28;20037;-62
2022/06/30 10:41:23;;;;;;;6.25;2.03;;;;;;;23.48;53.75;101158.06;5032659;28;20105;-63
2022/06/30 10:44:03;;;;;;;4.30;1.90;;;;;;;23.51;54.02;101151.59;5032916;28;20034;-63
2022/06/30 10:46:29;;;;;;;4.00;1.80;;;;;;;23.51;53.91;101141.81;5032788;28;20030;-63
2022/06/30 10:48:54;;;;;;;7.78;2.20;;;;;;;23.51;54.25;101144.47;5032451;28;20028;-64
2022/06/30 10:51:21;;;;;;;5.55;2.10;;;;;;;23.51;54.41;101139.16;5031872;28;20025;-64
2022/06/30 10:53:50;;;;;;;6.63;1.65;;;;;;;23.52;54.22;101135.47;5032507;28;20021;-65
2022/06/30 10:56:16;;;;;;;3.83;1.50;;;;;;;23.53;53.92;101137.16;5032726;28;20083;-64
2022/06/30 10:59:07;;;;;;;3.63;1.60;;;;;;;23.54;54.14;101138.00;5031932;28;20033;-63
2022/06/30 11:01:33;;;;;;;5.00;1.48;;;;;;;23.54;53.68;101143.31;5032580;28;20037;-63
2022/06/30 11:04:00;;;;;;;4.15;1.70;;;;;;;23.54;54.08;101152.16;5032157;28;20021;-63
2022/06/30 11:07:00;;;;;;;3.80;1.55;;;;;;;23.53;54.22;101153.13;5031592;28;20459;-63
2022/06/30 11:09:44;;;;;;;4.38;1.50;;;;;;;23.54;54.35;101145.97;5032468;28;20564;-64
2022/06/30 11:12:42;;;;;;;4.82;1.73;;;;;;;23.55;54.21;101145.00;5033182;28;20396;-64
2022/06/30 11:15:08;;;;;;;5.45;2.10;;;;;;;23.56;54.59;101133.38;5034648;28;20048;-62
2022/06/30 11:17:39;;;;;;;4.45;1.80;;;;;;;23.57;54.55;101134.19;5036088;28;20107;-63
2022/06/30 11:20:06;;;;;;;5.07;1.65;;;;;;;23.57;54.12;101140.34;5035183;28;20068;-65
2022/06/30 11:22:34;;;;;;;5.15;1.70;;;;;;;23.57;54.33;101128.88;5036042;28;20037;-65
2022/06/30 11:25:11;;;;;;;2.95;1.40;;;;;;;23.58;54.36;101128.72;5035767;28;20026;-64
2022/06/30 11:27:38;;;;;;;4.18;1.85;;;;;;;23.59;54.27;101129.56;5035593;28;20060;-64
2022/06/30 11:30:06;;;;;;;4.60;1.65;;;;;;;23.58;54.22;101119.91;5035646;28;20032;-64
2022/06/30 11:32:32;;;;;;;3.75;1.60;;;;;;;23.59;54.08;101125.09;5036136;28;20108;-64
2022/06/30 11:34:58;;;;;;;5.10;1.73;;;;;;;23.60;54.01;101116.09;5034763;28;20124;-64
2022/06/30 11:37:25;;;;;;;3.72;1.30;;;;;;;23.62;54.05;101115.94;5035916;28;20445;-65
2022/06/30 11:40:04;;;;;;;3.10;1.42;;;;;;;23.61;54.33;101111.63;5035441;28;20041;-67
2022/06/30 11:42:30;;;;;;;5.22;1.67;;;;;;;23.61;54.38;101108.97;5035129;28;20029;-65